Time;durP1;ratioP1;P1;durP2;ratioP2;P2;SDS_P1;SDS_P2;PMS_P1;PMS_P2;Temp;Humidity;BMP_temperature;BMP_pressure;BME280_temperature;BME280_humidity;BME280_pressure;Samples;Min_cycle;Max_cycle;Signal;HPM_P1;HPM_P2
2022/09/09 00:01:30;;;;;;;1.92;0.57;;;15.40;99.90;;;;;;4935686;28;20058;-79
2022/09/09 00:04:03;;;;;;;2.90;0.55;;;15.30;99.90;;;;;;4981634;28;20121;-78
2022/09/09 00:06:48;;;;;;;0.98;0.60;;;15.30;99.90;;;;;;4966199;28;20036;-78
2022/09/09 00:09:16;;;;;;;1.65;0.40;;;15.30;99.90;;;;;;4964784;28;20046;-78
2022/09/09 00:12:14;;;;;;;2.38;0.70;;;15.40;99.90;;;;;;4932327;28;20121;-80
2022/09/09 00:14:43;;;;;;;1.80;0.60;;;15.40;99.90;;;;;;4962118;28;20542;-78
2022/09/09 00:17:15;;;;;;;1.77;0.57;;;15.50;99.90;;;;;;4982778;28;20041;-78
2022/09/09 00:20:12;;;;;;;1.67;0.50;;;15.40;99.90;;;;;;4965083;28;20409;-79
2022/09/09 00:22:38;;;;;;;2.90;0.63;;;15.40;99.90;;;;;;4965271;28;20038;-79
2022/09/09 00:25:16;;;;;;;0.47;0.40;;;15.30;99.90;;;;;;4948709;28;20138;-78
2022/09/09 00:27:45;;;;;;;1.30;0.50;;;15.40;99.90;;;;;;4949407;28;20022;-79
2022/09/09 00:30:16;;;;;;;2.63;0.50;;;15.40;99.90;;;;;;4935491;28;20122;-79
2022/09/09 00:32:41;;;;;;;0.63;0.40;;;15.40;99.90;;;;;;4949759;28;20081;-78
2022/09/09 00:35:09;;;;;;;0.80;0.50;;;15.30;99.90;;;;;;4950309;28;20397;-78
2022/09/09 00:37:35;;;;;;;2.67;0.50;;;15.30;99.90;;;;;;4966314;28;20038;-79
2022/09/09 00:40:02;;;;;;;2.53;0.40;;;15.20;99.90;;;;;;4939258;28;20053;-78
2022/09/09 00:42:46;;;;;;;2.92;0.65;;;15.20;99.90;;;;;;4952251;28;20030;-79
2022/09/09 00:45:14;;;;;;;2.28;0.50;;;15.20;99.90;;;;;;4932484;28;20066;-78
2022/09/09 00:47:42;;;;;;;1.92;0.50;;;15.10;99.90;;;;;;4980359;28;20045;-78
2022/09/09 00:50:35;;;;;;;1.65;0.50;;;15.20;99.90;;;;;;4981348;28;20574;-79
2022/09/09 00:53:34;;;;;;;1.58;0.60;;;15.00;99.90;;;;;;4949989;28;20034;-79
2022/09/09 00:56:14;;;;;;;2.20;0.50;;;15.00;99.90;;;;;;4979493;28;20470;-78
2022/09/09 00:58:53;;;;;;;2.22;0.52;;;14.90;99.90;;;;;;4961132;28;20035;-77
2022/09/09 01:01:19;;;;;;;1.27;0.55;;;14.90;99.90;;;;;;4969187;28;20525;-78
2022/09/09 01:03:54;;;;;;;2.72;0.50;;;14.90;99.90;;;;;;4949096;28;20038;-79
2022/09/09 01:06:38;;;;;;;0.40;0.30;;;14.90;99.90;;;;;;4968175;28;20093;-77
2022/09/09 01:09:25;;;;;;;1.55;0.63;;;14.90;99.90;;;;;;4946392;28;20038;-77
2022/09/09 01:12:03;;;;;;;0.73;0.50;;;14.90;99.90;;;;;;4980181;28;20035;-79
2022/09/09 01:14:34;;;;;;;1.08;0.70;;;14.90;99.90;;;;;;4967451;28;20040;-80
2022/09/09 01:17:07;;;;;;;2.25;0.60;;;14.90;99.90;;;;;;4983862;28;20545;-79
2022/09/09 01:19:43;;;;;;;1.83;0.80;;;15.00;99.90;;;;;;4951950;28;20023;-78
2022/09/09 01:22:22;;;;;;;2.35;0.98;;;15.00;99.90;;;;;;4948082;28;20026;-77
2022/09/09 01:25:27;;;;;;;2.40;0.75;;;14.90;99.90;;;;;;4948893;28;20116;-76
2022/09/09 01:27:55;;;;;;;2.55;0.70;;;14.80;99.90;;;;;;4974324;28;20443;-79
2022/09/09 01:30:20;;;;;;;3.78;1.00;;;14.70;99.90;;;;;;4950787;28;20505;-79
2022/09/09 01:32:48;;;;;;;0.88;0.73;;;14.70;99.90;;;;;;4946528;28;20040;-79
2022/09/09 01:35:45;;;;;;;1.58;0.70;;;14.60;99.90;;;;;;4952622;28;20034;-78
2022/09/09 01:38:10;;;;;;;4.93;0.90;;;14.70;99.90;;;;;;4958105;28;20031;-80
2022/09/09 01:40:36;;;;;;;2.17;0.70;;;14.90;99.90;;;;;;4936549;28;20034;-79
2022/09/09 01:43:01;;;;;;;2.60;0.68;;;15.00;99.90;;;;;;4958765;28;20030;-77
2022/09/09 01:45:27;;;;;;;1.50;0.85;;;15.00;99.90;;;;;;4950309;28;20043;-79
2022/09/09 01:47:53;;;;;;;2.67;0.80;;;15.00;99.90;;;;;;4934988;28;20397;-79
2022/09/09 01:50:19;;;;;;;1.92;0.80;;;15.00;99.90;;;;;;4961554;28;20106;-79
2022/09/09 01:52:45;;;;;;;1.98;0.85;;;15.00;99.90;;;;;;4944473;28;20035;-79
2022/09/09 01:55:11;;;;;;;3.47;1.05;;;15.10;99.90;;;;;;4934135;28;20117;-80
2022/09/09 01:57:42;;;;;;;4.45;1.40;;;15.00;99.90;;;;;;4937311;28;20549;-79
2022/09/09 02:00:12;;;;;;;3.70;1.92;;;15.00;99.90;;;;;;4965862;28;20034;-79
2022/09/09 02:03:00;;;;;;;1.80;1.05;;;14.90;99.90;;;;;;4944751;28;20033;-79
2022/09/09 02:05:35;;;;;;;3.80;1.90;;;15.00;99.90;;;;;;4967223;28;20096;-79
2022/09/09 02:08:11;;;;;;;2.17;1.05;;;14.90;99.90;;;;;;4961190;28;20043;-78
2022/09/09 02:10:55;;;;;;;2.85;1.50;;;14.90;99.90;;;;;;4948174;28;20058;-79
2022/09/09 02:13:21;;;;;;;2.17;0.80;;;14.80;99.90;;;;;;4963551;28;20133;-80
2022/09/09 02:16:02;;;;;;;2.92;1.00;;;14.90;99.90;;;;;;4936835;28;20154;-79
2022/09/09 02:18:32;;;;;;;2.40;0.93;;;14.80;99.90;;;;;;4961865;28;20034;-79
2022/09/09 02:20:58;;;;;;;5.38;1.33;;;14.70;99.90;;;;;;4935101;28;20422;-79
2022/09/09 02:23:23;;;;;;;2.55;0.90;;;14.70;99.90;;;;;;4945929;28;20088;-79
2022/09/09 02:25:51;;;;;;;7.75;1.30;;;14.80;99.90;;;;;;4931846;28;20570;-78
2022/09/09 02:28:17;;;;;;;2.63;0.98;;;14.70;99.90;;;;;;4948957;28;20061;-79
2022/09/09 02:30:42;;;;;;;5.68;1.50;;;14.60;99.90;;;;;;4930522;28;20472;-79
2022/09/09 02:33:10;;;;;;;6.30;1.50;;;14.70;99.90;;;;;;4935038;28;20038;-83
2022/09/09 02:35:38;;;;;;;3.90;1.10;;;14.60;99.90;;;;;;4965886;28;20039;-83
2022/09/09 02:38:07;;;;;;;4.53;1.40;;;14.60;99.90;;;;;;4941988;28;20047;-83
2022/09/09 02:40:33;;;;;;;2.58;1.23;;;14.80;99.90;;;;;;4952121;28;20401;-83
2022/09/09 02:42:59;;;;;;;2.28;1.00;;;14.70;99.90;;;;;;4936036;28;20038;-83
2022/09/09 02:45:28;;;;;;;3.75;1.27;;;14.70;99.90;;;;;;4945472;28;20026;-83
2022/09/09 02:47:59;;;;;;;3.88;1.30;;;14.80;99.90;;;;;;4931975;28;20470;-83
2022/09/09 02:50:27;;;;;;;2.78;1.10;;;14.80;99.90;;;;;;4966702;28;20091;-83
2022/09/09 02:53:08;;;;;;;1.67;0.82;;;14.90;99.90;;;;;;4983175;28;20077;-83
2022/09/09 02:55:38;;;;;;;2.25;1.00;;;14.90;99.90;;;;;;4984404;28;20137;-83
2022/09/09 02:58:06;;;;;;;2.35;1.02;;;14.90;99.90;;;;;;4965787;28;20065;-83
2022/09/09 03:00:33;;;;;;;2.47;0.80;;;14.90;99.90;;;;;;4936476;28;20037;-83
2022/09/09 03:02:59;;;;;;;4.38;1.52;;;14.90;99.90;;;;;;4928824;28;20085;-83
2022/09/09 03:05:26;;;;;;;2.33;1.23;;;15.00;99.90;;;;;;4951295;28;20049;-83
2022/09/09 03:07:51;;;;;;;4.75;1.67;;;15.00;99.90;;;;;;4964752;28;20042;-83
2022/09/09 03:10:17;;;;;;;4.03;1.60;;;14.90;99.90;;;;;;4949847;28;20035;-83
2022/09/09 03:12:43;;;;;;;3.17;1.10;;;14.90;99.90;;;;;;4932038;28;20073;-82
2022/09/09 03:15:09;;;;;;;5.82;1.92;;;14.90;99.90;;;;;;4946949;28;20092;-83
2022/09/09 03:17:35;;;;;;;4.18;1.17;;;15.00;99.90;;;;;;4936998;28;20398;-83
2022/09/09 03:20:02;;;;;;;7.53;2.15;;;14.90;99.90;;;;;;4932682;28;20086;-81
2022/09/09 03:22:27;;;;;;;2.90;0.98;;;14.90;99.90;;;;;;4935768;28;20109;-83
2022/09/09 03:24:53;;;;;;;1.33;1.00;;;14.90;99.90;;;;;;4963342;28;20141;-82
2022/09/09 03:27:19;;;;;;;2.10;1.05;;;14.90;99.90;;;;;;4949472;28;20076;-82
2022/09/09 03:29:45;;;;;;;2.65;1.05;;;15.00;99.90;;;;;;4947697;28;20054;-83
2022/09/09 03:32:10;;;;;;;2.78;1.48;;;14.90;99.90;;;;;;4934689;28;20038;-83
2022/09/09 03:34:38;;;;;;;5.50;1.35;;;14.90;99.90;;;;;;4965538;28;20035;-83
2022/09/09 03:37:05;;;;;;;3.03;1.20;;;14.90;99.90;;;;;;4969107;28;20026;-83
2022/09/09 03:39:31;;;;;;;2.65;1.00;;;14.90;99.90;;;;;;4974908;28;20034;-83
2022/09/09 03:41:56;;;;;;;4.32;1.50;;;14.90;99.90;;;;;;4938500;28;20103;-83
2022/09/09 03:44:22;;;;;;;5.43;1.20;;;14.90;99.90;;;;;;4941195;28;20038;-83
2022/09/09 03:46:47;;;;;;;4.70;1.40;;;14.80;99.90;;;;;;4978989;28;20034;-83
2022/09/09 03:49:13;;;;;;;2.53;0.90;;;14.80;99.90;;;;;;4951329;28;20034;-83
2022/09/09 03:51:38;;;;;;;3.15;1.33;;;14.80;99.90;;;;;;4948188;28;20030;-83
2022/09/09 03:54:07;;;;;;;2.92;1.45;;;14.90;99.90;;;;;;4938814;28;20027;-82
2022/09/09 03:56:33;;;;;;;1.85;0.70;;;14.90;99.90;;;;;;4960349;28;20048;-83
2022/09/09 03:58:59;;;;;;;6.32;1.27;;;14.80;99.90;;;;;;4955835;28;20121;-83
2022/09/09 04:01:24;;;;;;;5.05;1.15;;;14.80;99.90;;;;;;4985968;28;20538;-83
2022/09/09 04:03:50;;;;;;;2.75;1.40;;;14.80;99.90;;;;;;4936987;28;20130;-83
2022/09/09 04:06:17;;;;;;;2.40;0.85;;;14.80;99.90;;;;;;4953475;28;20065;-83
2022/09/09 04:08:42;;;;;;;5.00;1.10;;;14.90;99.90;;;;;;4954189;28;20045;-83
2022/09/09 04:11:08;;;;;;;1.77;1.15;;;14.90;99.90;;;;;;4967494;28;20035;-83
2022/09/09 04:13:34;;;;;;;1.67;1.25;;;15.00;99.90;;;;;;4953948;28;20046;-82
2022/09/09 04:16:00;;;;;;;2.85;1.30;;;14.90;99.90;;;;;;4933967;28;20339;-83
2022/09/09 04:18:26;;;;;;;4.53;1.20;;;14.80;99.90;;;;;;4967613;28;20064;-83
2022/09/09 04:20:52;;;;;;;2.38;0.90;;;14.80;99.90;;;;;;4936612;28;20101;-83
2022/09/09 04:23:20;;;;;;;4.55;0.88;;;14.80;99.90;;;;;;4954125;28;20092;-83
2022/09/09 04:25:50;;;;;;;2.35;0.85;;;14.70;99.90;;;;;;4960652;28;20034;-83
2022/09/09 04:28:16;;;;;;;2.63;0.98;;;14.70;99.90;;;;;;4965351;28;20026;-83
2022/09/09 04:30:42;;;;;;;2.95;0.98;;;14.70;99.90;;;;;;4951071;28;20424;-83
2022/09/09 04:33:08;;;;;;;3.53;1.20;;;14.60;99.90;;;;;;4935414;28;20070;-84
2022/09/09 04:35:33;;;;;;;2.45;1.13;;;14.80;99.90;;;;;;4952711;28;20065;-83
2022/09/09 04:37:59;;;;;;;3.28;1.15;;;14.80;99.90;;;;;;4979102;28;20058;-83
2022/09/09 04:40:25;;;;;;;3.30;0.95;;;14.70;99.90;;;;;;4951921;28;20038;-82
2022/09/09 04:42:50;;;;;;;2.70;1.15;;;14.70;99.90;;;;;;4935148;28;20023;-82
2022/09/09 04:45:16;;;;;;;3.08;1.00;;;14.70;99.90;;;;;;4939410;28;20034;-82
2022/09/09 04:47:42;;;;;;;2.28;1.08;;;14.70;99.90;;;;;;4934198;28;20418;-82
2022/09/09 04:50:08;;;;;;;4.70;1.30;;;14.60;99.90;;;;;;4967828;28;20041;-82
2022/09/09 04:52:37;;;;;;;3.15;0.95;;;14.60;99.90;;;;;;4958973;28;20026;-83
2022/09/09 04:55:03;;;;;;;3.17;0.95;;;14.70;99.90;;;;;;4966297;28;20030;-82
2022/09/09 04:57:28;;;;;;;4.72;1.10;;;14.70;99.90;;;;;;4939158;28;20041;-84
2022/09/09 04:59:54;;;;;;;6.45;2.25;;;14.70;99.90;;;;;;4952801;28;20023;-84
2022/09/09 05:02:19;;;;;;;7.03;1.63;;;14.70;99.90;;;;;;4983053;28;20086;-83
2022/09/09 05:04:45;;;;;;;9.32;1.77;;;14.60;99.90;;;;;;4948018;28;20033;-84
2022/09/09 05:07:11;;;;;;;3.33;1.23;;;14.70;99.90;;;;;;4945486;28;20030;-85
2022/09/09 05:09:37;;;;;;;2.00;0.90;;;14.70;99.90;;;;;;4961782;28;20031;-85
2022/09/09 05:12:04;;;;;;;7.45;1.52;;;14.80;99.90;;;;;;4955803;28;20129;-85
2022/09/09 05:14:29;;;;;;;8.38;1.70;;;14.80;99.90;;;;;;4949214;28;20623;-85
2022/09/09 05:16:56;;;;;;;2.20;1.10;;;14.80;99.90;;;;;;4967551;28;20039;-84
2022/09/09 05:19:21;;;;;;;3.00;1.13;;;14.80;99.90;;;;;;4954286;28;20042;-85
2022/09/09 05:21:47;;;;;;;3.70;1.70;;;14.80;99.90;;;;;;4939823;28;20124;-82
2022/09/09 05:24:12;;;;;;;2.65;0.90;;;14.90;99.90;;;;;;4948960;28;20030;-84
2022/09/09 05:26:38;;;;;;;2.38;1.13;;;14.90;99.90;;;;;;4949827;28;20084;-82
2022/09/09 05:29:05;;;;;;;5.63;2.00;;;14.90;99.90;;;;;;4946876;28;20030;-83
2022/09/09 05:31:31;;;;;;;8.45;2.17;;;14.90;99.90;;;;;;4960612;28;20062;-83
2022/09/09 05:33:58;;;;;;;11.68;2.15;;;14.90;99.90;;;;;;4961693;28;20057;-83
2022/09/09 05:36:24;;;;;;;5.22;1.30;;;14.90;99.90;;;;;;4948253;28;20498;-81
2022/09/09 05:38:50;;;;;;;7.45;1.75;;;14.90;99.90;;;;;;4938097;28;20060;-81
2022/09/09 05:41:15;;;;;;;4.82;1.75;;;15.00;99.90;;;;;;4934414;28;20038;-82
2022/09/09 05:43:44;;;;;;;4.18;1.70;;;14.90;99.90;;;;;;4964943;28;20034;-81
2022/09/09 05:46:11;;;;;;;15.95;2.13;;;15.00;99.90;;;;;;4950364;28;20117;-82
2022/09/09 05:48:38;;;;;;;4.75;1.80;;;15.10;99.90;;;;;;4969110;28;20037;-82
2022/09/09 05:51:04;;;;;;;6.25;1.50;;;15.10;99.90;;;;;;4934167;28;20446;-81
2022/09/09 05:53:32;;;;;;;4.90;1.65;;;15.10;99.90;;;;;;4937164;28;20026;-82
2022/09/09 05:56:10;;;;;;;7.00;1.52;;;15.20;99.90;;;;;;4930892;28;20822;-83
2022/09/09 05:58:36;;;;;;;3.97;1.77;;;15.20;99.90;;;;;;4953206;28;20441;-82
2022/09/09 06:01:03;;;;;;;7.65;2.00;;;15.20;99.90;;;;;;4965720;28;20566;-81
2022/09/09 06:03:29;;;;;;;3.83;1.55;;;15.30;99.90;;;;;;4947579;28;20030;-84
2022/09/09 06:06:01;;;;;;;3.47;1.70;;;15.20;99.90;;;;;;4951866;28;20031;-83
2022/09/09 06:08:27;;;;;;;3.38;1.10;;;15.30;99.90;;;;;;4938816;28;20125;-83
2022/09/09 06:10:53;;;;;;;8.10;1.85;;;15.30;99.90;;;;;;4949143;28;20122;-82
2022/09/09 06:13:18;;;;;;;4.07;1.35;;;15.40;99.90;;;;;;4955458;28;20094;-83
2022/09/09 06:15:53;;;;;;;8.48;1.73;;;15.40;99.90;;;;;;4952978;28;20118;-84
2022/09/09 06:18:20;;;;;;;6.85;1.55;;;15.40;99.90;;;;;;4948450;28;20035;-81
2022/09/09 06:21:04;;;;;;;1.63;1.20;;;15.40;99.90;;;;;;4944478;28;20042;-82
2022/09/09 06:23:29;;;;;;;6.13;1.50;;;15.50;99.90;;;;;;4956968;28;20058;-81
2022/09/09 06:26:25;;;;;;;5.32;1.30;;;15.60;99.90;;;;;;4936392;28;21173;-81
2022/09/09 06:28:52;;;;;;;10.20;2.47;;;15.70;99.90;;;;;;4938736;28;20038;-82
2022/09/09 06:31:22;;;;;;;6.57;1.50;;;15.70;99.90;;;;;;4944178;28;20061;-82
2022/09/09 06:33:49;;;;;;;7.57;2.13;;;15.60;99.90;;;;;;4949987;28;20041;-85
2022/09/09 06:36:16;;;;;;;4.47;1.98;;;15.70;99.90;;;;;;4936275;28;20517;-86
2022/09/09 06:38:42;;;;;;;4.20;1.70;;;15.80;99.90;;;;;;4936322;28;20061;-85
2022/09/09 06:41:08;;;;;;;4.85;1.60;;;15.90;99.90;;;;;;4958947;28;20031;-85
2022/09/09 06:43:34;;;;;;;5.78;1.30;;;16.00;99.90;;;;;;4936412;28;20042;-86
2022/09/09 06:46:09;;;;;;;6.85;1.58;;;16.00;99.90;;;;;;4945419;28;20041;-86
2022/09/09 06:48:36;;;;;;;8.75;1.73;;;16.10;99.90;;;;;;4948677;28;20027;-85
2022/09/09 06:51:02;;;;;;;5.97;1.73;;;16.20;99.90;;;;;;4949796;28;20498;-85
2022/09/09 06:53:28;;;;;;;3.88;1.63;;;16.20;99.90;;;;;;4949175;28;20038;-87
2022/09/09 06:55:54;;;;;;;5.32;1.67;;;16.30;99.90;;;;;;4959104;28;20034;-86
2022/09/09 06:58:21;;;;;;;5.07;1.63;;;16.40;99.90;;;;;;4947824;28;20027;-86
2022/09/09 07:00:47;;;;;;;8.45;2.40;;;16.40;99.90;;;;;;4946514;28;20059;-86
2022/09/09 07:03:13;;;;;;;5.60;1.50;;;16.50;99.90;;;;;;4951111;28;20108;-87
2022/09/09 07:05:38;;;;;;;5.80;1.58;;;16.60;99.90;;;;;;4933249;28;20037;-86
2022/09/09 07:08:04;;;;;;;9.25;2.28;;;16.70;99.90;;;;;;4933269;28;20038;-85
2022/09/09 07:10:29;;;;;;;6.93;2.28;;;16.90;99.90;;;;;;4949925;28;20133;-86
2022/09/09 07:12:55;;;;;;;8.95;2.20;;;17.00;99.90;;;;;;4957657;28;20026;-87
2022/09/09 07:15:22;;;;;;;9.50;1.50;;;17.20;99.90;;;;;;4955458;28;20057;-86
2022/09/09 07:17:48;;;;;;;4.00;1.45;;;17.50;99.90;;;;;;4943855;28;20036;-84
2022/09/09 07:20:14;;;;;;;7.75;1.13;;;17.60;99.90;;;;;;4952851;28;20042;-83
2022/09/09 07:22:40;;;;;;;4.97;1.30;;;17.80;99.90;;;;;;4957474;28;20034;-82
2022/09/09 07:25:06;;;;;;;1.77;1.58;;;17.90;99.90;;;;;;4968353;28;20113;-83
2022/09/09 07:27:32;;;;;;;5.35;1.38;;;18.00;99.90;;;;;;4959384;28;20537;-84
2022/09/09 07:29:57;;;;;;;2.75;0.90;;;18.10;99.90;;;;;;4965275;28;20114;-84
2022/09/09 07:32:23;;;;;;;5.53;1.30;;;18.30;99.90;;;;;;4966037;28;20043;-84
2022/09/09 07:34:50;;;;;;;8.32;1.65;;;18.30;99.90;;;;;;4951988;28;20042;-84
2022/09/09 07:37:15;;;;;;;4.97;1.38;;;18.50;99.90;;;;;;4956315;28;20026;-84
2022/09/09 07:39:41;;;;;;;5.47;1.17;;;18.60;99.90;;;;;;4939710;28;20054;-86
2022/09/09 07:42:08;;;;;;;2.30;1.05;;;18.60;99.90;;;;;;4947533;28;20046;-87
2022/09/09 07:44:35;;;;;;;2.75;1.00;;;18.70;99.90;;;;;;4950387;28;20054;-85
2022/09/09 07:47:04;;;;;;;4.22;1.30;;;18.70;99.90;;;;;;4960871;28;20023;-86
2022/09/09 07:49:30;;;;;;;6.43;1.20;;;18.90;99.90;;;;;;4956636;28;20134;-85
2022/09/09 07:51:56;;;;;;;2.30;0.85;;;18.90;99.90;;;;;;4938933;28;20105;-86
2022/09/09 07:54:23;;;;;;;6.53;1.30;;;19.10;99.90;;;;;;4934978;28;20410;-86
2022/09/09 07:56:49;;;;;;;6.75;1.33;;;19.10;99.90;;;;;;4941035;28;20034;-88
2022/09/09 07:59:15;;;;;;;3.30;0.90;;;19.20;99.90;;;;;;4948311;28;20402;-86
2022/09/09 08:01:45;;;;;;;7.70;1.17;;;19.40;99.90;;;;;;4949403;28;20026;-87
2022/09/09 08:04:14;;;;;;;1.27;0.93;;;19.30;99.90;;;;;;4947957;28;20038;-86
2022/09/09 08:06:41;;;;;;;2.00;0.70;;;19.30;99.90;;;;;;4949060;28;20074;-86
2022/09/09 08:09:09;;;;;;;4.28;1.23;;;19.30;99.90;;;;;;4937186;28;20394;-85
2022/09/09 08:11:35;;;;;;;6.45;2.67;;;19.30;99.90;;;;;;4943840;28;20037;-85
2022/09/09 08:14:01;;;;;;;7.82;1.65;;;19.40;99.90;;;;;;4936298;28;20844;-85
2022/09/09 08:16:30;;;;;;;5.60;1.38;;;19.50;99.90;;;;;;4936701;28;20041;-85
2022/09/09 08:18:55;;;;;;;13.27;2.05;;;19.80;99.90;;;;;;4952202;28;20027;-86
2022/09/09 08:21:31;;;;;;;5.53;1.00;;;20.00;99.90;;;;;;4925160;28;20573;-86
2022/09/09 08:23:59;;;;;;;5.28;1.30;;;20.10;99.90;;;;;;4951449;28;20027;-86
2022/09/09 08:26:35;;;;;;;6.10;1.10;;;20.00;99.90;;;;;;4954048;28;20084;-86
2022/09/09 08:29:01;;;;;;;2.58;1.00;;;20.00;99.90;;;;;;4960944;28;20039;-87
2022/09/09 08:31:31;;;;;;;4.68;1.15;;;20.00;99.90;;;;;;4951807;28;20041;-87
2022/09/09 08:33:59;;;;;;;4.47;1.13;;;20.00;99.90;;;;;;4956081;28;20486;-86
2022/09/09 08:36:25;;;;;;;3.47;0.98;;;20.20;99.90;;;;;;4941143;28;20172;-86
2022/09/09 08:38:54;;;;;;;4.35;1.40;;;20.30;99.90;;;;;;4960716;28;20509;-86
2022/09/09 08:41:58;;;;;;;3.30;0.65;;;20.40;99.90;;;;;;4953658;28;20498;-86
2022/09/09 08:44:50;;;;;;;8.38;1.65;;;20.50;99.30;;;;;;4969565;28;20057;-87
2022/09/09 08:47:35;;;;;;;7.63;1.48;;;20.60;99.30;;;;;;4980130;28;20110;-88
2022/09/09 08:50:24;;;;;;;3.70;1.15;;;20.70;98.30;;;;;;4968907;28;20033;-86
2022/09/09 08:53:01;;;;;;;3.20;1.17;;;20.70;98.90;;;;;;4952855;28;20176;-86
2022/09/09 08:55:49;;;;;;;6.60;1.55;;;20.80;98.50;;;;;;4934826;28;20513;-88
2022/09/09 08:58:19;;;;;;;5.60;1.60;;;20.80;98.20;;;;;;4952656;28;20086;-87
2022/09/09 09:01:00;;;;;;;5.07;1.17;;;20.80;97.50;;;;;;4956895;28;20065;-86
2022/09/09 09:03:26;;;;;;;5.85;1.10;;;20.90;97.80;;;;;;4964078;28;20033;-88
2022/09/09 09:06:17;;;;;;;2.55;1.05;;;21.00;97.50;;;;;;4964983;28;20031;-86
2022/09/09 09:09:06;;;;;;;9.15;1.05;;;21.10;97.00;;;;;;4957865;28;20108;-88
2022/09/09 09:11:40;;;;;;;3.10;1.10;;;21.20;96.80;;;;;;4945961;28;20085;-88
2022/09/09 09:14:14;;;;;;;5.00;1.13;;;21.20;96.30;;;;;;4949065;28;20114;-88
2022/09/09 09:16:49;;;;;;;3.60;1.02;;;21.10;96.10;;;;;;4951274;28;20146;-88
2022/09/09 09:19:15;;;;;;;2.80;1.00;;;21.00;96.50;;;;;;4936973;28;20054;-87
2022/09/09 09:21:45;;;;;;;5.13;1.25;;;21.00;96.60;;;;;;4950481;28;20474;-87
2022/09/09 09:24:15;;;;;;;4.20;1.23;;;21.00;96.40;;;;;;4939617;28;20042;-87
2022/09/09 09:26:40;;;;;;;2.63;0.90;;;21.20;95.50;;;;;;4951010;28;20479;-88
2022/09/09 09:29:12;;;;;;;3.88;1.40;;;21.20;95.40;;;;;;4945151;28;20026;-86
2022/09/09 09:31:37;;;;;;;3.45;1.15;;;21.30;95.40;;;;;;4941565;28;20031;-87
2022/09/09 09:34:03;;;;;;;4.15;1.63;;;21.40;95.40;;;;;;4934975;28;20042;-88
2022/09/09 09:36:39;;;;;;;5.80;1.25;;;21.60;94.80;;;;;;4950193;28;20046;-88
2022/09/09 09:39:05;;;;;;;3.10;0.90;;;21.60;94.10;;;;;;4950240;28;20031;-86
2022/09/09 09:41:38;;;;;;;4.80;1.02;;;21.80;93.90;;;;;;4970290;28;20028;-86
2022/09/09 09:44:04;;;;;;;3.70;1.35;;;21.90;93.80;;;;;;4979581;28;20027;-88
2022/09/09 09:46:30;;;;;;;4.45;1.10;;;22.10;93.00;;;;;;4953988;28;20041;-87
2022/09/09 09:49:05;;;;;;;5.43;1.73;;;22.10;92.70;;;;;;4963198;28;20042;-88
2022/09/09 09:51:33;;;;;;;8.30;1.30;;;22.20;92.90;;;;;;4969104;28;20041;-87
2022/09/09 09:54:18;;;;;;;6.68;0.90;;;22.30;93.20;;;;;;4944764;28;20166;-88
2022/09/09 09:56:44;;;;;;;6.23;1.10;;;22.30;91.70;;;;;;4965492;28;20035;-88
2022/09/09 09:59:28;;;;;;;3.22;0.95;;;22.30;91.30;;;;;;4951871;28;20054;-87
2022/09/09 10:01:53;;;;;;;4.15;1.05;;;22.20;90.90;;;;;;4968402;28;20034;-88
2022/09/09 10:04:23;;;;;;;5.18;1.13;;;22.20;91.50;;;;;;4954413;28;20517;-87
2022/09/09 10:06:49;;;;;;;4.50;0.80;;;22.20;91.00;;;;;;4954862;28;20034;-87
2022/09/09 10:09:26;;;;;;;3.28;1.00;;;22.20;90.90;;;;;;4949930;28;20030;-90
2022/09/09 10:12:23;;;;;;;4.28;1.02;;;22.20;90.00;;;;;;4965759;28;20088;-88
2022/09/09 10:15:10;;;;;;;3.05;1.00;;;22.00;90.30;;;;;;4963560;28;20089;-88
2022/09/09 10:18:09;;;;;;;4.28;0.95;;;21.90;89.20;;;;;;4986795;28;20022;-86
2022/09/09 10:20:46;;;;;;;1.30;0.52;;;21.80;90.20;;;;;;4953421;28;20739;-86
2022/09/09 10:23:39;;;;;;;3.50;0.70;;;22.20;90.10;;;;;;4967548;28;20088;-87
2022/09/09 10:26:20;;;;;;;2.88;0.80;;;22.20;87.90;;;;;;4959037;28;20080;-87
2022/09/09 10:28:52;;;;;;;2.60;0.73;;;22.40;86.40;;;;;;4954817;28;20371;-87
2022/09/09 10:31:35;;;;;;;3.15;0.60;;;22.30;84.70;;;;;;4982436;28;20030;-88
2022/09/09 10:34:08;;;;;;;2.22;0.70;;;22.30;84.40;;;;;;4969128;28;20109;-87
2022/09/09 10:36:34;;;;;;;1.17;0.75;;;22.40;85.50;;;;;;4953820;28;20039;-87
2022/09/09 10:39:29;;;;;;;2.83;0.70;;;22.20;83.00;;;;;;4962677;28;20030;-84
2022/09/09 10:41:57;;;;;;;3.45;1.27;;;22.10;82.70;;;;;;4953536;28;20117;-88
2022/09/09 10:44:54;;;;;;;4.00;1.05;;;22.20;83.20;;;;;;4980973;28;20050;-87
2022/09/09 10:47:33;;;;;;;;;;;22.40;83.10;;;;;;4968137;28;20030;-85
2022/09/09 10:50:20;;;;;;;4.05;0.90;;;22.60;83.10;;;;;;4952961;28;19910;-85
2022/09/09 10:53:01;;;;;;;1.27;0.98;;;22.60;83.20;;;;;;4983393;28;20027;-84
2022/09/09 10:55:33;;;;;;;1.85;0.55;;;22.80;81.60;;;;;;4277727;28;10000605;-84
2022/09/09 10:57:58;;;;;;;3.05;0.75;;;22.80;81.10;;;;;;4931358;28;20456;-85
2022/09/09 11:00:31;;;;;;;3.20;0.90;;;22.70;82.30;;;;;;4935782;28;20265;-85
2022/09/09 11:03:01;;;;;;;2.25;0.70;;;22.80;81.30;;;;;;4945693;28;20093;-83
2022/09/09 11:05:39;;;;;;;2.00;0.73;;;22.70;80.60;;;;;;4950304;28;20033;-85
2022/09/09 11:08:17;;;;;;;5.05;1.17;;;22.70;80.80;;;;;;4973870;28;20395;-84
2022/09/09 11:10:43;;;;;;;2.03;0.60;;;22.40;80.40;;;;;;4949178;28;20038;-85
2022/09/09 11:13:15;;;;;;;2.30;0.77;;;22.50;81.20;;;;;;4964029;28;20042;-85
2022/09/09 11:15:43;;;;;;;4.25;0.93;;;22.60;82.20;;;;;;4933645;28;20037;-84
2022/09/09 11:18:13;;;;;;;2.38;0.70;;;22.80;81.20;;;;;;4963447;28;20039;-85
2022/09/09 11:20:39;;;;;;;3.13;0.60;;;22.90;80.80;;;;;;4961586;28;20034;-83
2022/09/09 11:23:27;;;;;;;1.10;0.60;;;22.90;81.00;;;;;;4948791;28;20101;-84
2022/09/09 11:25:56;;;;;;;1.25;0.82;;;22.80;78.90;;;;;;4936416;28;20065;-84
2022/09/09 11:28:31;;;;;;;2.45;0.70;;;22.70;79.60;;;;;;4934645;28;20042;-85
2022/09/09 11:31:07;;;;;;;6.65;1.00;;;23.00;80.30;;;;;;4966516;28;20491;-86
2022/09/09 11:34:18;;;;;;;1.80;0.73;;;23.20;79.90;;;;;;4943234;28;20137;-83
2022/09/09 11:37:26;;;;;;;3.22;0.75;;;23.20;80.70;;;;;;4953596;28;20042;-85
2022/09/09 11:40:15;;;;;;;3.78;0.70;;;23.10;80.20;;;;;;4914453;29;20087;-84
2022/09/09 11:42:41;;;;;;;0.95;0.63;;;23.10;83.60;;;;;;4946087;28;20501;-84
2022/09/09 11:45:15;;;;;;;2.75;0.95;;;23.00;84.00;;;;;;4939038;28;20057;-83
2022/09/09 11:47:50;;;;;;;3.67;0.82;;;23.00;85.20;;;;;;4942911;28;20038;-84
2022/09/09 11:50:18;;;;;;;3.63;0.80;;;22.90;83.30;;;;;;4952724;28;20027;-84
2022/09/09 11:52:48;;;;;;;2.80;0.60;;;23.10;83.00;;;;;;4967328;28;20105;-84
2022/09/09 11:55:28;;;;;;;0.80;0.50;;;23.10;81.40;;;;;;4951323;28;20060;-83
2022/09/09 11:58:10;;;;;;;1.75;0.70;;;22.90;81.20;;;;;;4940327;28;20038;-83
2022/09/09 12:00:37;;;;;;;1.75;0.52;;;22.80;83.70;;;;;;4972228;28;20037;-83
2022/09/09 12:03:05;;;;;;;2.00;0.80;;;22.80;85.90;;;;;;4973628;28;20633;-84
2022/09/09 12:05:42;;;;;;;2.40;0.47;;;22.40;85.60;;;;;;4950666;28;20113;-83
2022/09/09 12:08:09;;;;;;;2.65;0.63;;;22.10;85.60;;;;;;4935296;28;20061;-83
2022/09/09 12:10:37;;;;;;;2.15;1.15;;;22.00;86.60;;;;;;4959031;28;20037;-84
2022/09/09 12:13:20;;;;;;;3.45;0.75;;;21.90;85.90;;;;;;4935082;28;20035;-84
2022/09/09 12:15:56;;;;;;;1.52;0.50;;;22.00;86.30;;;;;;4939792;28;20491;-84
2022/09/09 12:18:26;;;;;;;3.33;0.70;;;22.10;85.80;;;;;;4951916;28;20035;-84
2022/09/09 12:21:00;;;;;;;5.88;0.75;;;22.30;85.80;;;;;;4952137;28;20035;-84
2022/09/09 12:24:05;;;;;;;3.20;0.90;;;22.30;85.00;;;;;;4963056;28;20583;-83
2022/09/09 12:26:45;;;;;;;1.45;0.55;;;22.30;85.60;;;;;;4911733;29;20037;-84
2022/09/09 12:30:08;;;;;;;1.95;0.50;;;22.60;84.90;;;;;;4974079;28;20038;-84
2022/09/09 12:32:34;;;;;;;2.42;0.52;;;22.70;84.60;;;;;;4920591;29;20086;-84
2022/09/09 12:35:02;;;;;;;1.98;0.60;;;22.90;84.80;;;;;;4913549;29;20515;-84
2022/09/09 12:37:38;;;;;;;2.95;0.90;;;22.90;83.90;;;;;;4901998;28;20085;-84
2022/09/09 12:40:25;;;;;;;2.67;0.60;;;22.90;83.00;;;;;;4965080;28;20391;-83
2022/09/09 12:42:51;;;;;;;4.78;0.60;;;22.70;83.30;;;;;;4955008;28;20027;-86
2022/09/09 12:45:27;;;;;;;5.78;0.80;;;22.30;87.90;;;;;;4956917;28;20384;-84
2022/09/09 12:48:08;;;;;;;4.22;0.80;;;22.10;89.40;;;;;;4945554;28;20034;-84
2022/09/09 12:50:40;;;;;;;4.07;0.73;;;22.30;91.10;;;;;;4937197;28;20030;-84
2022/09/09 12:53:29;;;;;;;4.80;0.77;;;22.30;91.20;;;;;;4947263;28;20034;-84
2022/09/09 12:56:07;;;;;;;4.50;0.82;;;22.20;91.30;;;;;;4967834;28;20073;-84
2022/09/09 12:58:33;;;;;;;3.05;0.60;;;22.30;91.10;;;;;;4955299;28;20133;-84
2022/09/09 13:00:59;;;;;;;3.67;1.00;;;22.30;91.10;;;;;;4953542;28;20045;-84
2022/09/09 13:03:25;;;;;;;1.80;0.80;;;22.30;90.90;;;;;;4938918;28;20042;-84
2022/09/09 13:05:51;;;;;;;6.25;0.70;;;22.50;90.90;;;;;;4945344;28;20047;-84
2022/09/09 13:08:22;;;;;;;3.78;0.55;;;22.60;90.20;;;;;;4935233;28;20506;-84
2022/09/09 13:10:59;;;;;;;6.97;0.70;;;22.40;90.30;;;;;;4935288;28;20546;-84